createdAt,value
2023-05-15T00:00:36.108Z,11.15
2023-05-15T00:01:36.065Z,11.21
2023-05-15T00:02:36.077Z,11.19
2023-05-15T00:03:36.122Z,11.23
2023-05-15T00:04:36.024Z,11.23
2023-05-15T00:05:35.930Z,11.23
2023-05-15T00:06:35.901Z,11.21
2023-05-15T00:07:35.883Z,11.22
2023-05-15T00:08:35.864Z,11.19
2023-05-15T00:09:35.831Z,11.21
2023-05-15T00:10:36.008Z,11.22
2023-05-15T00:11:35.766Z,11.21
2023-05-15T00:12:35.738Z,11.18
2023-05-15T00:13:36.592Z,11.13
2023-05-15T00:14:35.681Z,10.98
2023-05-15T00:15:35.638Z,10.95
2023-05-15T00:16:35.680Z,11.02
2023-05-15T00:17:35.633Z,11.06
2023-05-15T00:18:35.718Z,11.09
2023-05-15T00:19:36.516Z,11.11
2023-05-15T00:20:35.693Z,11.12
2023-05-15T00:21:35.713Z,11.15
2023-05-15T00:22:35.771Z,11.13
2023-05-15T00:23:35.760Z,11.11
2023-05-15T00:24:35.811Z,11.19
2023-05-15T00:25:35.828Z,11.18
2023-05-15T00:26:35.826Z,11.19
2023-05-15T00:27:35.789Z,11.25
2023-05-15T00:28:35.833Z,11.25
2023-05-15T00:29:35.694Z,11.27
2023-05-15T00:30:35.671Z,11.29
2023-05-15T00:31:35.652Z,11.29
2023-05-15T00:32:35.630Z,11.29
2023-05-15T00:33:35.569Z,11.29
2023-05-15T00:34:35.532Z,11.29
2023-05-15T00:35:35.487Z,11.29
2023-05-15T00:36:35.455Z,11.29
2023-05-15T00:37:35.414Z,11.30
2023-05-15T00:38:35.400Z,11.29
2023-05-15T00:39:35.993Z,11.29
2023-05-15T00:40:35.323Z,11.29
2023-05-15T00:41:35.273Z,11.26
2023-05-15T00:42:35.255Z,11.30
2023-05-15T00:43:35.277Z,11.29
2023-05-15T00:44:35.293Z,11.32
2023-05-15T00:45:35.318Z,11.29
2023-05-15T00:46:35.341Z,11.32
2023-05-15T00:47:35.330Z,11.29
2023-05-15T00:48:35.287Z,11.33
2023-05-15T00:49:35.267Z,11.33
2023-05-15T00:50:35.264Z,11.29
2023-05-15T00:51:35.230Z,11.30
2023-05-15T00:52:35.238Z,11.29
2023-05-15T00:53:35.285Z,11.29
2023-05-15T00:54:35.332Z,11.30
2023-05-15T00:55:35.316Z,11.30
2023-05-15T00:56:35.334Z,11.32
2023-05-15T00:57:35.378Z,11.32
2023-05-15T00:58:35.409Z,11.30
2023-05-15T00:59:35.412Z,11.30
2023-05-15T01:00:35.485Z,11.30
2023-05-15T01:01:35.477Z,11.30
2023-05-15T01:02:35.446Z,11.32
2023-05-15T01:03:35.456Z,11.33
2023-05-15T01:04:35.421Z,11.34
2023-05-15T01:05:35.386Z,11.36
2023-05-15T01:06:35.420Z,11.37
2023-05-15T01:07:35.435Z,11.32
2023-05-15T01:08:35.469Z,11.32
2023-05-15T01:09:35.490Z,11.36
2023-05-15T01:10:35.540Z,11.34
2023-05-15T01:11:35.568Z,11.33
2023-05-15T01:12:35.604Z,11.29
2023-05-15T01:13:35.660Z,11.36
2023-05-15T01:14:35.648Z,11.36
2023-05-15T01:15:35.673Z,11.33
2023-05-15T01:16:35.683Z,11.40
2023-05-15T01:17:35.721Z,11.41
2023-05-15T01:18:35.753Z,11.43
2023-05-15T01:19:35.765Z,11.43
2023-05-15T01:20:35.624Z,11.43
2023-05-15T01:21:35.588Z,11.46
2023-05-15T01:22:35.598Z,11.44
2023-05-15T01:23:35.550Z,11.41
2023-05-15T01:24:35.559Z,11.43
2023-05-15T01:25:35.571Z,11.40
2023-05-15T01:26:35.628Z,11.41
2023-05-15T01:27:35.592Z,11.39
2023-05-15T01:28:35.602Z,11.40
2023-05-15T01:29:35.637Z,11.40
2023-05-15T01:30:35.661Z,11.41
2023-05-15T01:31:35.719Z,11.40
2023-05-15T01:32:35.702Z,11.40
2023-05-15T01:33:35.692Z,11.25
2023-05-15T01:34:35.651Z,10.88
2023-05-15T01:35:35.615Z,10.98
2023-05-15T01:36:35.603Z,11.09
2023-05-15T01:37:35.572Z,11.11
2023-05-15T01:38:35.576Z,11.12
2023-05-15T01:39:35.546Z,11.15
2023-05-15T01:40:35.550Z,11.15
2023-05-15T01:41:35.580Z,11.18
2023-05-15T01:42:35.586Z,11.21
2023-05-15T01:43:35.593Z,11.22
2023-05-15T01:44:35.589Z,11.26
2023-05-15T01:45:35.653Z,11.25
2023-05-15T01:46:35.734Z,11.25
2023-05-15T01:47:35.671Z,11.27
2023-05-15T01:48:35.652Z,11.29
2023-05-15T01:49:35.660Z,11.32
2023-05-15T01:50:35.698Z,11.36
2023-05-15T01:51:35.671Z,11.36
2023-05-15T01:52:35.676Z,11.39
2023-05-15T01:53:35.697Z,11.37
2023-05-15T01:54:35.736Z,11.39
2023-05-15T01:55:35.743Z,11.40
2023-05-15T01:56:35.772Z,11.40
2023-05-15T01:57:35.745Z,11.37
2023-05-15T01:58:35.714Z,11.41
2023-05-15T01:59:35.714Z,11.37
2023-05-15T02:00:35.710Z,11.29
2023-05-15T02:01:35.706Z,11.32
2023-05-15T02:02:35.741Z,11.22
2023-05-15T02:03:35.861Z,11.23
2023-05-15T02:04:35.717Z,11.16
2023-05-15T02:05:35.726Z,11.18
2023-05-15T02:06:35.793Z,11.23
2023-05-15T02:07:35.770Z,11.25
2023-05-15T02:08:35.782Z,11.26
2023-05-15T02:09:35.792Z,11.27
2023-05-15T02:10:35.808Z,11.29
2023-05-15T02:11:35.839Z,11.30
2023-05-15T02:12:35.880Z,11.26
2023-05-15T02:13:35.864Z,11.19
2023-05-15T02:14:35.891Z,11.30
2023-05-15T02:15:35.952Z,11.29
2023-05-15T02:16:35.884Z,11.34
2023-05-15T02:17:35.865Z,11.34
2023-05-15T02:18:35.886Z,11.27
2023-05-15T02:19:35.905Z,11.26
2023-05-15T02:20:35.891Z,11.23
2023-05-15T02:21:35.984Z,11.23
2023-05-15T02:22:35.996Z,11.22
2023-05-15T02:23:36.011Z,11.23
2023-05-15T02:24:36.058Z,11.21
2023-05-15T02:25:36.075Z,11.21
2023-05-15T02:26:36.103Z,11.22
2023-05-15T02:27:36.103Z,11.23
2023-05-15T02:28:36.110Z,11.26
2023-05-15T02:29:36.124Z,11.25
2023-05-15T02:30:36.127Z,11.23
2023-05-15T02:31:36.179Z,11.26
2023-05-15T02:32:36.162Z,11.26
2023-05-15T02:33:36.219Z,11.29
2023-05-15T02:34:36.141Z,11.21
2023-05-15T02:35:36.162Z,11.15
2023-05-15T02:36:36.203Z,11.13
2023-05-15T02:37:36.221Z,11.13
2023-05-15T02:38:36.242Z,11.15
2023-05-15T02:39:36.326Z,11.15
2023-05-15T02:40:36.285Z,11.15
2023-05-15T02:41:36.280Z,11.11
2023-05-15T02:42:36.231Z,11.08
2023-05-15T02:43:36.243Z,10.79
2023-05-15T02:44:36.199Z,10.87
2023-05-15T02:45:36.209Z,10.90
2023-05-15T02:46:36.182Z,10.90
2023-05-15T02:47:36.225Z,10.92
2023-05-15T02:48:36.221Z,10.92
2023-05-15T02:49:36.244Z,10.95
2023-05-15T02:50:36.247Z,10.91
2023-05-15T02:51:36.225Z,10.91
2023-05-15T02:52:36.233Z,10.96
2023-05-15T02:53:36.249Z,10.98
2023-05-15T02:54:36.274Z,11.02
2023-05-15T02:55:36.245Z,10.99
2023-05-15T02:56:36.276Z,11.01
2023-05-15T02:57:36.239Z,11.05
2023-05-15T02:58:36.204Z,10.82
2023-05-15T02:59:36.199Z,10.59
2023-05-15T03:00:36.235Z,10.70
2023-05-15T03:01:36.268Z,10.79
2023-05-15T03:02:36.341Z,10.84
2023-05-15T03:03:36.369Z,10.78
2023-05-15T03:04:36.367Z,10.87
2023-05-15T03:05:36.325Z,10.90
2023-05-15T03:06:36.357Z,10.95
2023-05-15T03:07:36.358Z,10.95
2023-05-15T03:08:36.374Z,10.99
2023-05-15T03:09:36.388Z,11.01
2023-05-15T03:10:36.382Z,11.04
2023-05-15T03:11:36.418Z,11.01
2023-05-15T03:12:36.460Z,11.05
2023-05-15T03:13:36.473Z,11.05
2023-05-15T03:14:36.493Z,11.02
2023-05-15T03:15:36.530Z,11.01
2023-05-15T03:16:36.636Z,11.04
2023-05-15T03:17:36.610Z,10.98
2023-05-15T03:18:36.618Z,10.99
2023-05-15T03:19:36.562Z,10.98
2023-05-15T03:20:36.549Z,10.99
2023-05-15T03:21:36.541Z,10.85
2023-05-15T03:22:36.536Z,10.81
2023-05-15T03:23:37.835Z,10.84
2023-05-15T03:24:36.502Z,10.85
2023-05-15T03:25:36.550Z,10.87
2023-05-15T03:26:36.581Z,10.85
2023-05-15T03:27:36.696Z,10.84
2023-05-15T03:28:36.676Z,10.88
2023-05-15T03:29:36.732Z,10.84
2023-05-15T03:30:36.763Z,10.88
2023-05-15T03:31:36.917Z,10.78
2023-05-15T03:32:36.847Z,10.84
2023-05-15T03:33:36.709Z,10.82
2023-05-15T03:34:36.611Z,10.61
2023-05-15T03:35:36.722Z,10.61
2023-05-15T03:36:36.756Z,10.67
2023-05-15T03:37:36.609Z,10.68
2023-05-15T03:38:36.581Z,10.63
2023-05-15T03:39:36.610Z,10.63
2023-05-15T03:40:36.633Z,10.54
2023-05-15T03:41:36.805Z,10.37
2023-05-15T03:42:37.543Z,10.44
2023-05-15T03:43:36.783Z,10.43
2023-05-15T03:44:36.764Z,10.44
2023-05-15T03:45:36.816Z,10.44
2023-05-15T03:46:37.184Z,10.50
2023-05-15T03:47:36.843Z,10.51
2023-05-15T03:48:36.817Z,10.54
2023-05-15T03:49:36.832Z,10.56
2023-05-15T03:50:36.897Z,10.61
2023-05-15T03:51:37.036Z,10.63
2023-05-15T03:52:37.464Z,10.65
2023-05-15T03:53:37.098Z,10.67
2023-05-15T03:54:37.078Z,10.68
2023-05-15T03:55:37.146Z,10.71
2023-05-15T03:56:37.114Z,10.72
2023-05-15T03:57:37.162Z,10.74
2023-05-15T03:58:37.119Z,10.74
2023-05-15T03:59:38.044Z,10.75
2023-05-15T04:00:37.164Z,10.65
2023-05-15T04:01:47.318Z,10.72
2023-05-15T04:02:38.253Z,10.77
2023-05-15T04:03:38.104Z,10.61
2023-05-15T04:04:38.156Z,10.70
2023-05-15T04:05:38.095Z,10.68
2023-05-15T04:06:37.574Z,10.72
2023-05-15T04:07:37.074Z,10.77
2023-05-15T04:08:37.540Z,10.77
2023-05-15T04:09:36.964Z,10.81
2023-05-15T04:10:36.942Z,10.85
2023-05-15T04:11:36.921Z,10.88
2023-05-15T04:12:36.882Z,10.92
2023-05-15T04:13:37.546Z,10.95
2023-05-15T04:14:37.530Z,11.01
2023-05-15T04:15:36.819Z,11.08
2023-05-15T04:16:37.671Z,11.11
2023-05-15T04:17:37.574Z,11.18
2023-05-15T04:18:36.807Z,11.19
2023-05-15T04:19:36.747Z,11.21
2023-05-15T04:20:36.664Z,11.26
2023-05-15T04:21:37.578Z,11.27
2023-05-15T04:22:36.601Z,11.29
2023-05-15T04:23:36.585Z,11.30
2023-05-15T04:24:36.544Z,11.30
2023-05-15T04:25:36.500Z,11.33
2023-05-15T04:26:36.497Z,11.33
2023-05-15T04:27:36.474Z,11.34
2023-05-15T04:28:36.428Z,11.33
2023-05-15T04:29:36.415Z,11.30
2023-05-15T04:30:36.376Z,11.39
2023-05-15T04:31:36.399Z,11.43
2023-05-15T04:32:36.370Z,11.49
2023-05-15T04:33:36.288Z,11.44
2023-05-15T04:34:36.274Z,11.56
2023-05-15T04:35:36.234Z,11.61
2023-05-15T04:36:36.191Z,11.66
2023-05-15T04:37:36.165Z,11.70
2023-05-15T04:38:36.107Z,11.74
2023-05-15T04:39:36.095Z,11.77
2023-05-15T04:40:36.071Z,11.81
2023-05-15T04:41:36.111Z,11.85
2023-05-15T04:42:36.768Z,11.84
2023-05-15T04:43:36.161Z,11.91
2023-05-15T04:44:36.169Z,11.95
2023-05-15T04:45:36.177Z,11.98
2023-05-15T04:46:36.223Z,11.99
2023-05-15T04:47:36.180Z,12.05
2023-05-15T04:48:36.156Z,12.08
2023-05-15T04:49:36.187Z,12.08
2023-05-15T04:50:36.221Z,12.09
2023-05-15T04:51:36.259Z,12.12
2023-05-15T04:52:36.288Z,12.12
2023-05-15T04:53:36.298Z,12.15
2023-05-15T04:54:36.287Z,12.19
2023-05-15T04:55:36.288Z,12.16
2023-05-15T04:56:36.304Z,12.23
2023-05-15T04:57:36.272Z,12.33
2023-05-15T04:58:36.252Z,12.37
2023-05-15T04:59:36.265Z,12.43
2023-05-15T05:00:36.279Z,12.46
2023-05-15T05:01:36.317Z,12.43
2023-05-15T05:02:36.341Z,12.37
2023-05-15T05:03:36.370Z,12.41
2023-05-15T05:04:36.377Z,12.46
2023-05-15T05:05:36.321Z,12.40
2023-05-15T05:06:36.292Z,12.41
2023-05-15T05:07:36.257Z,12.22
2023-05-15T05:08:36.173Z,12.13
2023-05-15T05:09:36.125Z,12.08
2023-05-15T05:10:36.062Z,11.67
2023-05-15T05:11:36.030Z,11.37
2023-05-15T05:12:35.982Z,11.50
2023-05-15T05:13:35.922Z,11.34
2023-05-15T05:14:35.879Z,11.27
2023-05-15T05:15:35.918Z,10.98
2023-05-15T05:16:35.835Z,11.01
2023-05-15T05:17:35.790Z,11.16
2023-05-15T05:18:35.706Z,11.22
2023-05-15T05:19:35.622Z,11.33
2023-05-15T05:20:35.591Z,11.36
2023-05-15T05:21:35.563Z,11.51
2023-05-15T05:22:35.505Z,11.63
2023-05-15T05:23:35.469Z,11.74
2023-05-15T05:24:35.416Z,11.78
2023-05-15T05:25:35.370Z,11.86
2023-05-15T05:26:35.336Z,11.96
2023-05-15T05:27:35.261Z,11.85
2023-05-15T05:28:35.245Z,12.06
2023-05-15T05:29:35.198Z,12.18
2023-05-15T05:30:42.052Z,12.25
2023-05-15T05:31:35.615Z,12.33
2023-05-15T05:32:35.085Z,12.35
2023-05-15T05:33:35.585Z,12.35
2023-05-15T05:34:34.968Z,12.30
2023-05-15T05:35:34.916Z,12.25
2023-05-15T05:36:34.996Z,12.25
2023-05-15T05:37:34.866Z,12.12
2023-05-15T05:38:35.110Z,12.15
2023-05-15T05:39:34.764Z,12.18
2023-05-15T05:40:34.781Z,12.18
2023-05-15T05:41:34.720Z,12.11
2023-05-15T05:42:34.667Z,11.86
2023-05-15T05:43:34.647Z,11.71
2023-05-15T05:44:34.617Z,11.67
2023-05-15T05:45:34.568Z,11.63
2023-05-15T05:46:34.703Z,11.68
2023-05-15T05:47:34.550Z,11.63
2023-05-15T05:48:34.505Z,11.70
2023-05-15T05:49:34.480Z,11.66
2023-05-15T05:50:35.069Z,11.73
2023-05-15T05:51:34.519Z,11.15
2023-05-15T05:52:34.378Z,10.71
2023-05-15T05:53:35.790Z,10.35
2023-05-15T05:54:34.512Z,10.25
2023-05-15T05:55:34.531Z,10.63
2023-05-15T05:56:34.676Z,10.47
2023-05-15T05:57:34.527Z,10.47
2023-05-15T05:58:34.582Z,10.67
2023-05-15T05:59:35.053Z,10.78
2023-05-15T06:00:34.568Z,10.68
2023-05-15T06:01:34.490Z,10.91
2023-05-15T06:02:34.591Z,10.95
2023-05-15T06:03:34.763Z,11.16
2023-05-15T06:04:34.735Z,11.29
2023-05-15T06:05:34.548Z,11.30
2023-05-15T06:06:34.784Z,11.34
2023-05-15T06:07:34.552Z,11.41
2023-05-15T06:08:34.562Z,11.04
2023-05-15T06:09:34.685Z,11.32
2023-05-15T06:10:34.590Z,11.39
2023-05-15T06:11:34.664Z,11.56
2023-05-15T06:12:34.694Z,11.66
2023-05-15T06:13:35.620Z,11.67
2023-05-15T06:14:34.671Z,11.78
2023-05-15T06:15:34.626Z,11.86
2023-05-15T06:16:34.616Z,11.85
2023-05-15T06:17:34.675Z,11.74
2023-05-15T06:18:34.649Z,11.82
2023-05-15T06:19:34.564Z,11.99
2023-05-15T06:20:35.088Z,12.19
2023-05-15T06:21:34.530Z,12.37
2023-05-15T06:22:34.495Z,12.53
2023-05-15T06:23:35.088Z,12.70
2023-05-15T06:24:34.406Z,12.87
2023-05-15T06:25:34.409Z,12.95
2023-05-15T06:26:34.480Z,13.08
2023-05-15T06:27:34.435Z,13.11
2023-05-15T06:28:35.133Z,13.03
2023-05-15T06:29:34.404Z,12.84
2023-05-15T06:30:34.410Z,12.78
2023-05-15T06:31:34.420Z,12.94
2023-05-15T06:32:34.614Z,13.12
2023-05-15T06:33:34.249Z,12.75
2023-05-15T06:34:34.223Z,13.11
2023-05-15T06:35:34.186Z,13.30
2023-05-15T06:36:34.155Z,13.53
2023-05-15T06:37:34.249Z,13.56
2023-05-15T06:38:34.717Z,13.71
2023-05-15T06:39:34.223Z,13.75
2023-05-15T06:40:34.203Z,13.84
2023-05-15T06:41:34.199Z,13.99
2023-05-15T06:42:35.155Z,14.12
2023-05-15T06:43:35.000Z,13.85
2023-05-15T06:44:34.227Z,13.82
2023-05-15T06:45:34.238Z,13.93
2023-05-15T06:46:34.272Z,13.99
2023-05-15T06:47:34.280Z,14.08
2023-05-15T06:48:34.295Z,14.13
2023-05-15T06:49:34.253Z,14.18
2023-05-15T06:50:34.260Z,14.22
2023-05-15T06:51:34.226Z,14.26
2023-05-15T06:52:34.147Z,14.30
2023-05-15T06:53:34.119Z,14.33
2023-05-15T06:54:34.058Z,14.33
2023-05-15T06:55:34.104Z,14.35
2023-05-15T06:56:34.013Z,14.40
2023-05-15T06:57:33.992Z,14.16
2023-05-15T06:58:33.891Z,14.20
2023-05-15T06:59:33.880Z,14.27
2023-05-15T07:00:33.787Z,14.30
2023-05-15T07:01:33.773Z,14.35
2023-05-15T07:02:33.738Z,14.36
2023-05-15T07:03:34.602Z,14.40
2023-05-15T07:04:33.748Z,14.37
2023-05-15T07:05:33.641Z,14.37
2023-05-15T07:06:33.592Z,14.30
2023-05-15T07:07:33.554Z,14.46
2023-05-15T07:08:33.529Z,14.48
2023-05-15T07:09:33.456Z,14.50
2023-05-15T07:10:34.669Z,14.47
2023-05-15T07:11:34.362Z,14.48
2023-05-15T07:12:33.560Z,14.48
2023-05-15T07:13:33.291Z,14.50
2023-05-15T07:14:33.431Z,14.46
2023-05-15T07:15:33.167Z,14.40
2023-05-15T07:16:33.224Z,14.32
2023-05-15T07:17:33.115Z,13.77
2023-05-15T07:18:33.207Z,13.12
2023-05-15T07:19:33.848Z,13.35
2023-05-15T07:20:35.024Z,13.33
2023-05-15T07:21:32.841Z,13.25
2023-05-15T07:22:36.275Z,13.25
2023-05-15T07:23:33.822Z,13.19
2023-05-15T07:24:32.809Z,13.15
2023-05-15T07:25:32.674Z,12.60
2023-05-15T07:26:38.436Z,13.03
2023-05-15T07:27:33.572Z,13.35
2023-05-15T07:28:32.528Z,13.54
2023-05-15T07:29:35.210Z,13.74
2023-05-15T07:30:32.597Z,13.89
2023-05-15T07:31:32.501Z,14.15
2023-05-15T07:32:32.304Z,14.12
2023-05-15T07:33:32.279Z,13.60
2023-05-15T07:34:32.169Z,14.01
2023-05-15T07:35:32.109Z,14.27
2023-05-15T07:36:33.197Z,14.01
2023-05-15T07:37:33.679Z,14.30
2023-05-15T07:38:31.937Z,14.48
2023-05-15T07:39:31.940Z,14.35
2023-05-15T07:40:31.809Z,14.29
2023-05-15T07:41:31.797Z,14.13
2023-05-15T07:42:31.815Z,13.43
2023-05-15T07:43:32.907Z,14.02
2023-05-15T07:44:31.954Z,14.18
2023-05-15T07:45:32.527Z,14.35
2023-05-15T07:46:31.619Z,14.60
2023-05-15T07:47:31.421Z,14.94
2023-05-15T07:48:31.414Z,14.91
2023-05-15T07:49:31.349Z,15.39
2023-05-15T07:50:31.248Z,15.54
2023-05-15T07:51:31.252Z,15.85
2023-05-15T07:52:31.084Z,16.12
2023-05-15T07:53:31.080Z,16.26
2023-05-15T07:54:31.998Z,16.41
2023-05-15T07:55:30.884Z,15.72
2023-05-15T07:56:30.955Z,15.56
2023-05-15T07:57:30.744Z,16.08
2023-05-15T07:58:30.697Z,15.78
2023-05-15T07:59:30.666Z,16.06
2023-05-15T08:00:30.623Z,16.27
2023-05-15T08:01:31.370Z,16.54
2023-05-15T08:02:30.530Z,16.68
2023-05-15T08:03:30.362Z,16.81
2023-05-15T08:04:31.207Z,16.77
2023-05-15T08:05:31.168Z,16.92
2023-05-15T08:06:31.186Z,16.56
2023-05-15T08:07:30.233Z,16.50
2023-05-15T08:08:31.126Z,16.08
2023-05-15T08:09:30.120Z,15.82
2023-05-15T08:10:30.670Z,16.19
2023-05-15T08:11:30.109Z,16.53
2023-05-15T08:12:30.114Z,16.77
2023-05-15T08:13:30.721Z,16.95
2023-05-15T08:14:30.908Z,17.03
2023-05-15T08:15:32.724Z,17.16
2023-05-15T08:16:29.763Z,17.25
2023-05-15T08:17:29.936Z,17.30
2023-05-15T08:18:29.704Z,17.57
2023-05-15T08:19:29.576Z,17.58
2023-05-15T08:20:29.431Z,17.64
2023-05-15T08:21:29.370Z,17.61
2023-05-15T08:22:29.268Z,17.64
2023-05-15T08:23:29.256Z,17.82
2023-05-15T08:24:31.361Z,17.98
2023-05-15T08:25:29.094Z,18.17
2023-05-15T08:26:29.685Z,18.13
2023-05-15T08:27:29.999Z,18.03
2023-05-15T08:28:29.040Z,18.23
2023-05-15T08:29:29.727Z,18.29
2023-05-15T08:30:29.605Z,17.88
2023-05-15T08:31:29.778Z,18.12
2023-05-15T08:32:28.687Z,17.58
2023-05-15T08:33:29.163Z,18.19
2023-05-15T08:34:29.266Z,18.03
2023-05-15T08:35:28.636Z,18.27
2023-05-15T08:36:29.162Z,18.30
2023-05-15T08:37:28.810Z,18.40
2023-05-15T08:38:28.765Z,18.63
2023-05-15T08:39:28.489Z,18.78
2023-05-15T08:41:39.431Z,18.88
2023-05-15T08:42:29.606Z,18.27
2023-05-15T08:43:28.232Z,18.22
2023-05-15T08:44:28.072Z,18.53
2023-05-15T08:45:28.024Z,18.74
2023-05-15T08:46:27.963Z,18.92
2023-05-15T08:47:27.838Z,18.79
2023-05-15T08:48:27.744Z,18.39
2023-05-15T08:49:27.598Z,18.26
2023-05-15T08:50:28.140Z,18.61
2023-05-15T08:51:27.457Z,18.82
2023-05-15T08:52:28.212Z,18.92
2023-05-15T08:53:27.253Z,18.43
2023-05-15T08:54:27.277Z,18.72
2023-05-15T08:55:27.259Z,18.94
2023-05-15T08:56:27.008Z,18.70
2023-05-15T08:57:26.928Z,19.03
2023-05-15T08:58:26.804Z,19.27
2023-05-15T08:59:26.810Z,19.30
2023-05-15T09:00:26.621Z,19.36
2023-05-15T09:01:26.673Z,19.33
2023-05-15T09:02:26.572Z,19.26
2023-05-15T09:03:26.451Z,19.15
2023-05-15T09:04:26.248Z,18.84
2023-05-15T09:05:26.352Z,18.91
2023-05-15T09:06:26.229Z,18.85
2023-05-15T09:07:25.992Z,19.02
2023-05-15T09:08:25.901Z,18.92
2023-05-15T09:09:25.921Z,19.26
2023-05-15T09:10:25.790Z,19.06
2023-05-15T09:11:25.678Z,19.23
2023-05-15T09:12:25.619Z,19.75
2023-05-15T09:13:27.334Z,19.98
2023-05-15T09:14:25.451Z,19.95
2023-05-15T09:15:25.705Z,19.20
2023-05-15T09:16:25.301Z,18.70
2023-05-15T09:17:25.228Z,18.40
2023-05-15T09:18:25.216Z,17.95
2023-05-15T09:19:25.684Z,18.08
2023-05-15T09:20:24.851Z,18.39
2023-05-15T09:21:24.778Z,18.44
2023-05-15T09:22:24.678Z,17.12
2023-05-15T09:23:24.698Z,17.03
2023-05-15T09:24:24.552Z,17.39
2023-05-15T09:25:24.714Z,17.70
2023-05-15T09:26:24.337Z,17.15
2023-05-15T09:27:24.263Z,17.99
2023-05-15T09:28:24.193Z,18.54
2023-05-15T09:29:24.125Z,18.43
2023-05-15T09:30:23.982Z,18.57
2023-05-15T09:31:24.097Z,18.72
2023-05-15T09:32:23.914Z,19.22
2023-05-15T09:33:23.663Z,18.95
2023-05-15T09:34:23.693Z,19.27
2023-05-15T09:35:24.300Z,19.22
2023-05-15T09:36:23.413Z,19.20
2023-05-15T09:37:23.377Z,19.47
2023-05-15T09:38:23.403Z,19.25
2023-05-15T09:39:23.573Z,19.47
2023-05-15T09:40:24.115Z,19.26
2023-05-15T09:41:23.157Z,18.15
2023-05-15T09:42:23.034Z,17.95
2023-05-15T09:43:24.686Z,17.85
2023-05-15T09:44:22.892Z,17.25
2023-05-15T09:45:23.826Z,17.85
2023-05-15T09:46:22.758Z,17.93
2023-05-15T09:47:22.730Z,17.96
2023-05-15T09:48:22.879Z,17.75
2023-05-15T09:49:22.569Z,18.23
2023-05-15T09:50:22.676Z,17.60
2023-05-15T09:51:22.463Z,17.08
2023-05-15T09:52:22.434Z,17.33
2023-05-15T09:53:22.469Z,17.19
2023-05-15T09:54:22.534Z,17.26
2023-05-15T09:55:22.290Z,17.92
2023-05-15T09:56:22.253Z,17.44
2023-05-15T09:57:22.165Z,18.17
2023-05-15T09:58:22.114Z,18.41
2023-05-15T09:59:22.250Z,18.29
2023-05-15T10:00:22.036Z,18.16
2023-05-15T10:01:22.008Z,17.74
2023-05-15T10:02:22.272Z,17.09
2023-05-15T10:03:21.892Z,17.34
2023-05-15T10:04:21.789Z,17.37
2023-05-15T10:05:35.246Z,17.12
2023-05-15T10:06:23.623Z,17.01
2023-05-15T10:07:21.469Z,17.48
2023-05-15T10:08:21.816Z,17.81
2023-05-15T10:09:21.460Z,18.44
2023-05-15T10:10:21.257Z,18.19
2023-05-15T10:11:21.180Z,18.92
2023-05-15T10:12:21.107Z,19.37
2023-05-15T10:13:22.145Z,19.43
2023-05-15T10:14:21.070Z,19.46
2023-05-15T10:15:21.057Z,19.13
2023-05-15T10:16:20.987Z,19.34
2023-05-15T10:17:20.918Z,18.74
2023-05-15T10:18:20.883Z,19.52
2023-05-15T10:19:23.733Z,18.71
2023-05-15T10:20:20.690Z,19.19
2023-05-15T10:21:20.583Z,18.79
2023-05-15T10:22:20.504Z,19.43
2023-05-15T10:23:20.703Z,19.09
2023-05-15T10:24:20.302Z,19.68
2023-05-15T10:25:20.254Z,19.44
2023-05-15T10:26:20.105Z,18.63
2023-05-15T10:27:20.033Z,18.71
2023-05-15T10:28:20.003Z,18.47
2023-05-15T10:29:19.872Z,18.55
2023-05-15T10:30:19.874Z,18.10
2023-05-15T10:31:19.804Z,18.53
2023-05-15T10:32:19.665Z,18.57
2023-05-15T10:33:19.606Z,17.92
2023-05-15T10:34:19.523Z,18.44
2023-05-15T10:35:19.469Z,18.12
2023-05-15T10:36:19.437Z,17.92
2023-05-15T10:37:20.181Z,18.35
2023-05-15T10:38:19.407Z,18.36
2023-05-15T10:39:19.371Z,18.09
2023-05-15T10:40:19.389Z,17.29
2023-05-15T10:41:19.348Z,17.64
2023-05-15T10:42:19.319Z,17.56
2023-05-15T10:43:21.312Z,17.39
2023-05-15T10:44:19.309Z,17.84
2023-05-15T10:45:19.264Z,17.80
2023-05-15T10:46:19.249Z,17.84
2023-05-15T10:47:19.344Z,18.32
2023-05-15T10:48:19.196Z,18.53
2023-05-15T10:49:19.083Z,17.77
2023-05-15T10:50:19.668Z,18.20
2023-05-15T10:51:21.781Z,18.46
2023-05-15T10:52:18.981Z,18.08
2023-05-15T10:53:18.651Z,18.84
2023-05-15T10:54:19.601Z,18.53
2023-05-15T10:55:19.301Z,17.96
2023-05-15T10:56:18.592Z,18.13
2023-05-15T10:57:18.344Z,17.56
2023-05-15T10:58:18.377Z,17.93
2023-05-15T10:59:18.232Z,18.37
2023-05-15T11:00:18.166Z,18.81
2023-05-15T11:01:18.133Z,18.54
2023-05-15T11:02:18.105Z,18.92
2023-05-15T11:03:18.045Z,18.51
2023-05-15T11:04:17.961Z,17.89
2023-05-15T11:05:17.848Z,18.23
2023-05-15T11:06:17.788Z,17.22
2023-05-15T11:07:17.712Z,16.68
2023-05-15T11:08:17.626Z,17.18
2023-05-15T11:09:17.527Z,16.92
2023-05-15T11:10:17.478Z,16.95
2023-05-15T11:11:17.400Z,15.89
2023-05-15T11:12:17.312Z,16.15
2023-05-15T11:13:17.235Z,16.36
2023-05-15T11:14:17.164Z,16.63
2023-05-15T11:15:17.691Z,16.30
2023-05-15T11:16:17.020Z,15.39
2023-05-15T11:17:17.172Z,15.62
2023-05-15T11:18:17.197Z,15.60
2023-05-15T11:19:17.705Z,16.53
2023-05-15T11:20:16.799Z,17.03
2023-05-15T11:21:16.830Z,17.25
2023-05-15T11:22:16.922Z,17.13
2023-05-15T11:23:16.882Z,17.65
2023-05-15T11:24:16.663Z,18.08
2023-05-15T11:25:16.634Z,18.46
2023-05-15T11:26:16.613Z,18.88
2023-05-15T11:27:16.594Z,18.99
2023-05-15T11:28:16.438Z,19.26
2023-05-15T11:29:17.178Z,19.05
2023-05-15T11:30:16.329Z,19.44
2023-05-15T11:31:16.331Z,18.39
2023-05-15T11:32:16.299Z,18.46
2023-05-15T11:33:16.386Z,18.75
2023-05-15T11:34:16.136Z,18.08
2023-05-15T11:35:16.105Z,18.06
2023-05-15T11:36:16.095Z,18.17
2023-05-15T11:37:16.657Z,18.15
2023-05-15T11:38:15.971Z,18.01
2023-05-15T11:39:16.690Z,18.08
2023-05-15T11:40:15.873Z,18.48
2023-05-15T11:41:15.838Z,18.17
2023-05-15T11:42:15.782Z,18.22
2023-05-15T11:43:15.752Z,18.60
2023-05-15T11:44:15.707Z,18.67
2023-05-15T11:45:15.685Z,18.47
2023-05-15T11:46:15.739Z,18.54
2023-05-15T11:47:15.556Z,18.05
2023-05-15T11:48:15.608Z,17.93
2023-05-15T11:49:15.655Z,17.75
2023-05-15T11:50:15.435Z,17.33
2023-05-15T11:51:15.400Z,16.53
2023-05-15T11:52:15.292Z,16.84
2023-05-15T11:53:15.245Z,16.96
2023-05-15T11:54:15.663Z,17.25
2023-05-15T11:55:15.279Z,16.86
2023-05-15T11:56:15.050Z,17.02
2023-05-15T11:57:15.031Z,16.72
2023-05-15T11:58:15.018Z,16.86
2023-05-15T11:59:15.177Z,16.84
2023-05-15T12:00:14.987Z,16.29
2023-05-15T12:01:14.956Z,16.43
2023-05-15T12:02:15.177Z,16.82
2023-05-15T12:03:15.011Z,16.66
2023-05-15T12:04:15.012Z,16.26
2023-05-15T12:05:15.032Z,16.26
2023-05-15T12:06:14.824Z,16.50
2023-05-15T12:07:14.807Z,16.95
2023-05-15T12:08:14.779Z,16.75
2023-05-15T12:09:14.763Z,16.22
2023-05-15T12:10:14.770Z,16.19
2023-05-15T12:11:14.797Z,16.43
2023-05-15T12:12:14.697Z,16.20
2023-05-15T12:13:15.701Z,16.24
2023-05-15T12:14:14.701Z,15.96
2023-05-15T12:15:14.713Z,16.04
2023-05-15T12:16:14.707Z,15.88
2023-05-15T12:17:14.640Z,16.06
2023-05-15T12:18:14.626Z,15.56
2023-05-15T12:19:15.241Z,15.16
2023-05-15T12:20:14.552Z,15.78
2023-05-15T12:21:14.644Z,16.26
2023-05-15T12:22:14.452Z,16.23
2023-05-15T12:23:14.393Z,16.53
2023-05-15T12:24:14.311Z,16.20
2023-05-15T12:25:14.852Z,16.30
2023-05-15T12:26:14.177Z,16.04
2023-05-15T12:27:14.671Z,16.20
2023-05-15T12:28:14.031Z,16.22
2023-05-15T12:29:14.189Z,15.74
2023-05-15T12:30:13.905Z,16.08
2023-05-15T12:31:14.553Z,16.68
2023-05-15T12:32:13.822Z,16.71
2023-05-15T12:33:13.692Z,15.87
2023-05-15T12:34:13.654Z,15.84
2023-05-15T12:35:13.638Z,15.53
2023-05-15T12:36:13.591Z,16.56
2023-05-15T12:37:14.203Z,17.02
2023-05-15T12:38:13.512Z,17.11
2023-05-15T12:39:13.522Z,17.20
2023-05-15T12:40:14.205Z,16.81
2023-05-15T12:41:13.608Z,17.33
2023-05-15T12:42:13.484Z,16.61
2023-05-15T12:43:13.401Z,17.60
2023-05-15T12:44:13.366Z,17.33
2023-05-15T12:45:13.410Z,17.11
2023-05-15T12:46:13.308Z,17.80
2023-05-15T12:47:13.242Z,17.89
2023-05-15T12:48:13.402Z,17.88
2023-05-15T12:49:13.191Z,18.44
2023-05-15T12:50:13.125Z,17.80
2023-05-15T12:51:13.278Z,17.98
2023-05-15T12:52:13.057Z,17.33
2023-05-15T12:53:13.077Z,17.30